Triumph — WDC9555 — position and weather

sailwx.info

Track history (hours):
 
Tides and Currents Weather Stations Pressure Air Temp Water Temp Dewpoint Dewpoint Depression Visibility Wind Speed Wind Dir Waves Ship Positions

Triumph

Owner: WESTERN TOWBOAT CO, SEATTLE, WA. More information available from US FCC via Universal Licensing System and Coast Guard Vessel Documentation Center.

Last reported at 2017-Mar-29 02:11 UTC. Time now 2017-Mar-30 18:32 UTC.
Position N 47°34' W 122°21'.

Length 24 m; draft 3 m.

Type: Tow > 200 m length. MMSI: 367103880.

Date/timePositionNaut miles runAvg speedWind from/ knotsBaromVisibWave heightAir tempDewpointWater temp
2017-Mar-29 02:11N 47°34' W 122°21'1 1.1
2017-Mar-29 01:32N 47°33' W 122°21'4 3.9
2017-Mar-29 00:33N 47°37' W 122°24'6 5.9
2017-Mar-28 23:33N 47°42' W 122°28'7 6.6
2017-Mar-28 22:33N 47°48' W 122°28'7 7.5
2017-Mar-28 21:33N 47°56' W 122°31'8 7.2
2017-Mar-28 20:31N 48°01' W 122°38'13 6.4
2017-Mar-28 18:30N 48°12' W 122°49'7 6.9
2017-Mar-28 17:32N 48°19' W 122°47'7 7.1
2017-Mar-28 16:33N 48°26' W 122°44'8 8.1
2017-Mar-28 15:33N 48°34' W 122°45'7 7.4
2017-Mar-28 14:33N 48°41' W 122°44'6 5.6
2017-Mar-28 13:31N 48°46' W 122°50'6 6.0
2017-Mar-28 12:31N 48°49' W 122°57'5 5.0
2017-Mar-28 11:33N 48°52' W 123°03'5 5.5
2017-Mar-28 10:33N 48°56' W 123°10'6 5.6
2017-Mar-28 09:33N 48°59' W 123°16'6 5.8
2017-Mar-28 08:33N 49°04' W 123°21'6 6.4
2017-Mar-28 07:33N 49°08' W 123°13'7 7.0
2017-Mar-28 06:33N 49°09' W 123°03'0 0.5
2017-Mar-28 05:33N 49°09' W 123°02'0 0.0
2017-Mar-28 04:33N 49°09' W 123°02'0 0.0
2017-Mar-28 03:33N 49°09' W 123°02'0 0.0
2017-Mar-28 02:33N 49°09' W 123°02'0 0.0
2017-Mar-28 01:33N 49°09' W 123°02'0 0.0
2017-Mar-28 00:33N 49°09' W 123°02'0 0.0
2017-Mar-27 23:33N 49°09' W 123°02'0 0.0
2017-Mar-27 22:33N 49°09' W 123°02'0 0.0
2017-Mar-27 21:30N 49°09' W 123°02'0 0.0
2017-Mar-27 20:33N 49°09' W 123°02'0 0.0
2017-Mar-27 19:33N 49°09' W 123°02'0 0.0
2017-Mar-27 18:33N 49°09' W 123°02'0 0.0
2017-Mar-27 17:33N 49°09' W 123°02'0 0.0
2017-Mar-27 16:33N 49°09' W 123°02'0 0.0
2017-Mar-27 15:33N 49°09' W 123°02'0 0.0
2017-Mar-27 14:33N 49°09' W 123°02'0 0.0
2017-Mar-27 13:33N 49°09' W 123°02'0 0.0
2017-Mar-27 12:33N 49°09' W 123°02'0 0.0
2017-Mar-27 11:33N 49°09' W 123°02'0 0.0
2017-Mar-27 10:33N 49°09' W 123°02'1 1.2
2017-Mar-27 09:34N 49°08' W 123°03'6 6.0
2017-Mar-27 08:34N 49°08' W 123°13'6 5.6
2017-Mar-27 07:34N 49°04' W 123°19'9 9.0
2017-Mar-27 06:34N 48°58' W 123°09'9 9.5
2017-Mar-27 05:34N 48°52' W 122°58'11 9.1
2017-Mar-27 04:18N 48°44' W 122°45'6 7.7
2017-Mar-27 03:34N 48°39' W 122°43'7 7.3
2017-Mar-27 02:34N 48°31' W 122°45'34 8.5
2017-Mar-26 22:33N 47°58' W 122°34'9 8.5
2017-Mar-26 21:33N 47°51' W 122°27'9 9.3
2017-Mar-26 20:34N 47°41' W 122°27'8 8.0
2017-Mar-26 19:34N 47°34' W 122°21'2 1.8
2017-Mar-26 18:34N 47°36' W 122°23'4 4.1
2017-Mar-26 17:33N 47°40' W 122°24'1 1.3
2017-Mar-26 16:34N 47°39' W 122°22'  
2017-Mar-23 05:34N 47°39' W 122°22'3 2.7
2017-Mar-23 04:34N 47°37' W 122°23'4 4.0
2017-Mar-23 03:33N 47°33' W 122°21'2 2.3
2017-Mar-23 02:33N 47°35' W 122°22'6 5.7
2017-Mar-23 01:34N 47°39' W 122°28'6 5.7
2017-Mar-23 00:34N 47°45' W 122°27'6 6.1
2017-Mar-22 23:34N 47°51' W 122°29'6 5.6
2017-Mar-22 22:33N 47°56' W 122°33'12 5.6
2017-Mar-22 20:22N 48°07' W 122°41'5 6.3
2017-Mar-22 19:34N 48°11' W 122°47'7 6.1
2017-Mar-22 18:21N 48°18' W 122°47'5 6.4
2017-Mar-22 17:34N 48°23' W 122°45'6 6.0
2017-Mar-22 16:33N 48°29' W 122°45'7 6.7
2017-Mar-22 15:34N 48°36' W 122°46'7 6.6
2017-Mar-22 14:34N 48°42' W 122°45'7 6.6
2017-Mar-22 13:33N 48°47' W 122°52'7 6.9
2017-Mar-22 12:33N 48°51' W 123°01'8 7.8
2017-Mar-22 11:33N 48°56' W 123°10'7 7.5
2017-Mar-22 10:33N 49°01' W 123°18'6 5.7
2017-Mar-22 09:33N 49°06' W 123°18'5 4.9
2017-Mar-22 08:33N 49°07' W 123°10'5 5.2
2017-Mar-22 07:34N 49°09' W 123°03'1 0.7
2017-Mar-22 06:33N 49°09' W 123°02'0 0.0
2017-Mar-22 05:33N 49°09' W 123°02'0 0.0
2017-Mar-22 04:33N 49°09' W 123°02'0 0.0
2017-Mar-22 03:33N 49°09' W 123°02'0 0.0
2017-Mar-22 02:33N 49°09' W 123°02'0 0.0
2017-Mar-22 01:33N 49°09' W 123°02'0 0.0
2017-Mar-22 00:33N 49°09' W 123°02'0 0.0
2017-Mar-21 23:33N 49°09' W 123°02'0 0.0
2017-Mar-21 22:33N 49°09' W 123°02'0 0.0
2017-Mar-21 21:34N 49°09' W 123°02'0 0.0
2017-Mar-21 20:33N 49°09' W 123°02'0 0.0
2017-Mar-21 19:33N 49°09' W 123°02'0 0.0
2017-Mar-21 18:33N 49°09' W 123°02'0 0.0
2017-Mar-21 17:33N 49°09' W 123°02'0 0.0
2017-Mar-21 16:33N 49°09' W 123°02'0 0.0
2017-Mar-21 15:33N 49°09' W 123°02'0 0.0
2017-Mar-21 14:33N 49°09' W 123°02'0 0.0
2017-Mar-21 13:33N 49°09' W 123°02'0 0.0
2017-Mar-21 12:33N 49°09' W 123°02'0 0.0
2017-Mar-21 11:33N 49°09' W 123°02'0 0.0
2017-Mar-21 10:34N 49°09' W 123°02'0 0.0
2017-Mar-21 09:33N 49°09' W 123°02'3 3.0
2017-Mar-21 08:33N 49°07' W 123°06'8 8.1
2017-Mar-21 07:33N 49°06' W 123°18'6 6.3
2017-Mar-21 06:34N 49°01' W 123°14'9 9.0
2017-Mar-21 05:32N 48°54' W 123°04'9 8.9
2017-Mar-21 04:28N 48°48' W 122°53'7 8.1
2017-Mar-21 03:33N 48°43' W 122°44'8 8.2
2017-Mar-21 02:34N 48°35' W 122°45'9 8.8
2017-Mar-21 01:33N 48°26' W 122°44'9 8.3
2017-Mar-21 00:27N 48°17' W 122°47'18 9.1
2017-Mar-20 22:31N 48°01' W 122°37'9 9.7
2017-Mar-20 21:34N 47°53' W 122°28'8 8.5
2017-Mar-20 20:33N 47°45' W 122°26'7 7.5
2017-Mar-20 19:34N 47°38' W 122°25'  
Track history (hours):
 
Tides and Currents Weather Stations Pressure Air Temp Water Temp Dewpoint Dewpoint Depression Visibility Wind Speed Wind Dir Waves Ship Positions

Triumph

Owner: WESTERN TOWBOAT CO, SEATTLE, WA. More information available from US FCC via Universal Licensing System and Coast Guard Vessel Documentation Center.

Last reported at 2017-Mar-29 02:11 UTC. Time now 2017-Mar-30 18:32 UTC.
Position N 47°34' W 122°21'.

Length 24 m; draft 3 m.

Type: Tow > 200 m length. MMSI: 367103880.

Date/timePositionNaut miles runAvg speedWind from/ knotsBaromVisibWave heightAir tempDewpointWater temp
2017-Mar-29 02:11N 47°34' W 122°21'1 1.1
2017-Mar-29 01:32N 47°33' W 122°21'4 3.9
2017-Mar-29 00:33N 47°37' W 122°24'6 5.9
2017-Mar-28 23:33N 47°42' W 122°28'7 6.6
2017-Mar-28 22:33N 47°48' W 122°28'7 7.5
2017-Mar-28 21:33N 47°56' W 122°31'8 7.2
2017-Mar-28 20:31N 48°01' W 122°38'13 6.4
2017-Mar-28 18:30N 48°12' W 122°49'7 6.9
2017-Mar-28 17:32N 48°19' W 122°47'7 7.1
2017-Mar-28 16:33N 48°26' W 122°44'8 8.1
2017-Mar-28 15:33N 48°34' W 122°45'7 7.4
2017-Mar-28 14:33N 48°41' W 122°44'6 5.6
2017-Mar-28 13:31N 48°46' W 122°50'6 6.0
2017-Mar-28 12:31N 48°49' W 122°57'5 5.0
2017-Mar-28 11:33N 48°52' W 123°03'5 5.5
2017-Mar-28 10:33N 48°56' W 123°10'6 5.6
2017-Mar-28 09:33N 48°59' W 123°16'6 5.8
2017-Mar-28 08:33N 49°04' W 123°21'6 6.4
2017-Mar-28 07:33N 49°08' W 123°13'7 7.0
2017-Mar-28 06:33N 49°09' W 123°03'0 0.5
2017-Mar-28 05:33N 49°09' W 123°02'0 0.0
2017-Mar-28 04:33N 49°09' W 123°02'0 0.0
2017-Mar-28 03:33N 49°09' W 123°02'0 0.0
2017-Mar-28 02:33N 49°09' W 123°02'0 0.0
2017-Mar-28 01:33N 49°09' W 123°02'0 0.0
2017-Mar-28 00:33N 49°09' W 123°02'0 0.0
2017-Mar-27 23:33N 49°09' W 123°02'0 0.0
2017-Mar-27 22:33N 49°09' W 123°02'0 0.0
2017-Mar-27 21:30N 49°09' W 123°02'0 0.0
2017-Mar-27 20:33N 49°09' W 123°02'0 0.0
2017-Mar-27 19:33N 49°09' W 123°02'0 0.0
2017-Mar-27 18:33N 49°09' W 123°02'0 0.0
2017-Mar-27 17:33N 49°09' W 123°02'0 0.0
2017-Mar-27 16:33N 49°09' W 123°02'0 0.0
2017-Mar-27 15:33N 49°09' W 123°02'0 0.0
2017-Mar-27 14:33N 49°09' W 123°02'0 0.0
2017-Mar-27 13:33N 49°09' W 123°02'0 0.0
2017-Mar-27 12:33N 49°09' W 123°02'0 0.0
2017-Mar-27 11:33N 49°09' W 123°02'0 0.0
2017-Mar-27 10:33N 49°09' W 123°02'1 1.2
2017-Mar-27 09:34N 49°08' W 123°03'6 6.0
2017-Mar-27 08:34N 49°08' W 123°13'6 5.6
2017-Mar-27 07:34N 49°04' W 123°19'9 9.0
2017-Mar-27 06:34N 48°58' W 123°09'9 9.5
2017-Mar-27 05:34N 48°52' W 122°58'11 9.1
2017-Mar-27 04:18N 48°44' W 122°45'6 7.7
2017-Mar-27 03:34N 48°39' W 122°43'7 7.3
2017-Mar-27 02:34N 48°31' W 122°45'34 8.5
2017-Mar-26 22:33N 47°58' W 122°34'9 8.5
2017-Mar-26 21:33N 47°51' W 122°27'9 9.3
2017-Mar-26 20:34N 47°41' W 122°27'8 8.0
2017-Mar-26 19:34N 47°34' W 122°21'2 1.8
2017-Mar-26 18:34N 47°36' W 122°23'4 4.1
2017-Mar-26 17:33N 47°40' W 122°24'1 1.3
2017-Mar-26 16:34N 47°39' W 122°22'  
2017-Mar-23 05:34N 47°39' W 122°22'3 2.7
2017-Mar-23 04:34N 47°37' W 122°23'4 4.0
2017-Mar-23 03:33N 47°33' W 122°21'2 2.3
2017-Mar-23 02:33N 47°35' W 122°22'6 5.7
2017-Mar-23 01:34N 47°39' W 122°28'6 5.7
2017-Mar-23 00:34N 47°45' W 122°27'6 6.1
2017-Mar-22 23:34N 47°51' W 122°29'6 5.6
2017-Mar-22 22:33N 47°56' W 122°33'12 5.6
2017-Mar-22 20:22N 48°07' W 122°41'5 6.3
2017-Mar-22 19:34N 48°11' W 122°47'7 6.1
2017-Mar-22 18:21N 48°18' W 122°47'5 6.4
2017-Mar-22 17:34N 48°23' W 122°45'6 6.0
2017-Mar-22 16:33N 48°29' W 122°45'7 6.7
2017-Mar-22 15:34N 48°36' W 122°46'7 6.6
2017-Mar-22 14:34N 48°42' W 122°45'7 6.6
2017-Mar-22 13:33N 48°47' W 122°52'7 6.9
2017-Mar-22 12:33N 48°51' W 123°01'8 7.8
2017-Mar-22 11:33N 48°56' W 123°10'7 7.5
2017-Mar-22 10:33N 49°01' W 123°18'6 5.7
2017-Mar-22 09:33N 49°06' W 123°18'5 4.9
2017-Mar-22 08:33N 49°07' W 123°10'5 5.2
2017-Mar-22 07:34N 49°09' W 123°03'1 0.7
2017-Mar-22 06:33N 49°09' W 123°02'0 0.0
2017-Mar-22 05:33N 49°09' W 123°02'0 0.0
2017-Mar-22 04:33N 49°09' W 123°02'0 0.0
2017-Mar-22 03:33N 49°09' W 123°02'0 0.0
2017-Mar-22 02:33N 49°09' W 123°02'0 0.0
2017-Mar-22 01:33N 49°09' W 123°02'0 0.0
2017-Mar-22 00:33N 49°09' W 123°02'0 0.0
2017-Mar-21 23:33N 49°09' W 123°02'0 0.0
2017-Mar-21 22:33N 49°09' W 123°02'0 0.0
2017-Mar-21 21:34N 49°09' W 123°02'0 0.0
2017-Mar-21 20:33N 49°09' W 123°02'0 0.0
2017-Mar-21 19:33N 49°09' W 123°02'0 0.0
2017-Mar-21 18:33N 49°09' W 123°02'0 0.0
2017-Mar-21 17:33N 49°09' W 123°02'0 0.0
2017-Mar-21 16:33N 49°09' W 123°02'0 0.0
2017-Mar-21 15:33N 49°09' W 123°02'0 0.0
2017-Mar-21 14:33N 49°09' W 123°02'0 0.0
2017-Mar-21 13:33N 49°09' W 123°02'0 0.0
2017-Mar-21 12:33N 49°09' W 123°02'0 0.0
2017-Mar-21 11:33N 49°09' W 123°02'0 0.0
2017-Mar-21 10:34N 49°09' W 123°02'0 0.0
2017-Mar-21 09:33N 49°09' W 123°02'3 3.0
2017-Mar-21 08:33N 49°07' W 123°06'8 8.1
2017-Mar-21 07:33N 49°06' W 123°18'6 6.3
2017-Mar-21 06:34N 49°01' W 123°14'9 9.0
2017-Mar-21 05:32N 48°54' W 123°04'9 8.9
2017-Mar-21 04:28N 48°48' W 122°53'7 8.1
2017-Mar-21 03:33N 48°43' W 122°44'8 8.2
2017-Mar-21 02:34N 48°35' W 122°45'9 8.8
2017-Mar-21 01:33N 48°26' W 122°44'9 8.3
2017-Mar-21 00:27N 48°17' W 122°47'18 9.1
2017-Mar-20 22:31N 48°01' W 122°37'9 9.7
2017-Mar-20 21:34N 47°53' W 122°28'8 8.5
2017-Mar-20 20:33N 47°45' W 122°26'7 7.5
2017-Mar-20 19:34N 47°38' W 122°25'  

Dump ship's entire track history